Time;durP1;ratioP1;P1;durP2;ratioP2;P2;SDS_P1;SDS_P2;PMS_P1;PMS_P2;Temp;Humidity;BMP_temperature;BMP_pressure;BME280_temperature;BME280_humidity;BME280_pressure;Samples;Min_cycle;Max_cycle;Signal;HPM_P1;HPM_P2
2024/03/20 00:00:05;;;;;;;18.70;12.10;;;;;;;2.61;82.36;101351.48;107557;1253;99088;-62
2024/03/20 00:02:59;;;;;;;20.20;12.00;;;;;;;2.63;82.84;101351.95;107592;1252;99182;-62
2024/03/20 00:05:27;;;;;;;16.50;10.80;;;;;;;2.63;82.63;101349.46;107723;1251;113698;-62
2024/03/20 00:07:56;;;;;;;19.10;11.40;;;;;;;2.64;82.75;101343.54;107559;1254;108305;-62
2024/03/20 00:10:24;;;;;;;16.90;10.70;;;;;;;2.65;82.62;101346.69;107628;1254;107918;-63
2024/03/20 00:12:53;;;;;;;17.00;9.30;;;;;;;2.64;82.97;101346.40;107621;1250;99170;-65
2024/03/20 00:15:21;;;;;;;16.40;10.20;;;;;;;2.58;82.83;101348.24;107684;1251;99062;-62
2024/03/20 00:17:49;;;;;;;17.20;10.20;;;;;;;2.58;82.91;101347.74;107630;1250;112848;-62
2024/03/20 00:20:17;;;;;;;15.90;10.40;;;;;;;2.62;82.89;101348.96;107636;1251;108946;-63
2024/03/20 00:22:46;;;;;;;15.50;9.50;;;;;;;2.65;83.03;101344.23;107602;1251;108552;-63
2024/03/20 00:25:14;;;;;;;16.40;10.10;;;;;;;2.68;83.22;101343.02;107634;1251;99271;-64
2024/03/20 00:27:42;;;;;;;12.40;8.40;;;;;;;2.69;83.90;101342.47;107578;1251;99122;-64
2024/03/20 00:30:12;;;;;;;16.40;9.60;;;;;;;2.66;84.03;101344.89;107639;1251;114078;-64
2024/03/20 00:32:41;;;;;;;16.00;9.10;;;;;;;2.63;84.63;101345.21;107670;1251;108847;-64
2024/03/20 00:35:09;;;;;;;11.60;7.70;;;;;;;2.61;84.90;101352.04;107567;1254;107137;-65
2024/03/20 00:37:37;;;;;;;8.80;6.40;;;;;;;2.59;85.22;101347.33;107594;1250;98949;-63
2024/03/20 00:40:06;;;;;;;8.30;5.00;;;;;;;2.56;85.41;101345.88;107622;1251;99181;-64
2024/03/20 00:42:34;;;;;;;9.20;6.00;;;;;;;2.49;85.16;101351.12;107630;1251;113122;-63
2024/03/20 00:45:03;;;;;;;9.90;7.10;;;;;;;2.48;85.25;101349.92;107619;1251;108570;-64
2024/03/20 00:47:31;;;;;;;7.90;5.40;;;;;;;2.49;85.22;101351.52;107538;1254;107555;-63
2024/03/20 00:49:59;;;;;;;8.80;6.10;;;;;;;2.47;85.52;101356.56;107582;1252;99176;-63
2024/03/20 00:52:28;;;;;;;7.30;5.70;;;;;;;2.42;85.84;101361.54;107624;1252;99753;-62
2024/03/20 00:55:09;;;;;;;9.40;5.70;;;;;;;2.36;85.65;101370.66;107545;1251;112534;-63
2024/03/20 00:57:38;;;;;;;8.90;6.10;;;;;;;2.32;85.68;101370.32;107593;1254;107001;-63
2024/03/20 01:00:06;;;;;;;6.40;5.50;;;;;;;2.28;85.59;101370.88;107624;1255;107431;-64
2024/03/20 01:02:35;;;;;;;6.50;5.20;;;;;;;2.22;85.65;101369.86;107635;1251;99138;-63
2024/03/20 01:05:03;;;;;;;8.70;6.20;;;;;;;2.14;85.58;101371.10;107643;1251;99062;-62
2024/03/20 01:07:31;;;;;;;7.80;6.10;;;;;;;2.09;85.96;101372.91;107628;1253;113384;-64
2024/03/20 01:09:59;;;;;;;9.20;6.40;;;;;;;2.04;86.21;101374.02;107562;1250;107908;-64
2024/03/20 01:12:30;;;;;;;10.00;6.60;;;;;;;2.00;86.49;101378.08;107619;1251;108128;-64
2024/03/20 01:14:58;;;;;;;9.30;6.40;;;;;;;1.96;86.75;101381.59;107622;1250;99872;-62
2024/03/20 01:17:26;;;;;;;10.40;7.00;;;;;;;1.95;86.65;101380.92;107608;1250;99170;-63
2024/03/20 01:19:54;;;;;;;9.10;6.40;;;;;;;1.94;86.75;101382.91;107632;1251;112594;-64
2024/03/20 01:22:23;;;;;;;11.30;6.50;;;;;;;1.92;86.74;101385.31;107606;1255;107887;-62
2024/03/20 01:24:51;;;;;;;13.50;7.10;;;;;;;1.90;86.68;101386.63;107566;1253;108222;-63
2024/03/20 01:27:19;;;;;;;11.20;7.50;;;;;;;1.90;86.93;101395.84;107572;1254;99313;-64
2024/03/20 01:29:47;;;;;;;14.50;8.40;;;;;;;1.90;86.86;101396.70;107560;1254;99256;-64
2024/03/20 01:32:16;;;;;;;14.90;9.10;;;;;;;1.92;86.83;101395.21;107574;1251;112592;-62
2024/03/20 01:34:44;;;;;;;10.10;7.60;;;;;;;1.94;87.29;101394.95;107628;1251;107325;-63
2024/03/20 01:37:12;;;;;;;11.80;7.80;;;;;;;1.94;87.34;101394.59;107634;1251;107660;-62
2024/03/20 01:39:41;;;;;;;10.50;7.10;;;;;;;1.94;87.73;101397.23;107579;1254;99139;-63
2024/03/20 01:42:10;;;;;;;10.70;7.40;;;;;;;1.94;87.88;101402.19;107656;1251;99070;-64
2024/03/20 01:44:38;;;;;;;8.80;6.60;;;;;;;1.92;87.91;101408.48;107579;1251;112170;-63
2024/03/20 01:47:06;;;;;;;10.90;6.50;;;;;;;1.93;87.85;101406.35;107600;1251;109122;-63
2024/03/20 01:49:34;;;;;;;10.80;7.50;;;;;;;1.93;87.87;101405.60;107602;1252;108733;-63
2024/03/20 01:52:05;;;;;;;9.60;7.20;;;;;;;1.92;87.91;101411.86;107620;1254;99061;-63
2024/03/20 01:54:34;;;;;;;9.50;6.80;;;;;;;1.92;88.02;101412.72;107628;1251;99130;-63
2024/03/20 01:57:02;;;;;;;9.70;7.00;;;;;;;1.95;88.41;101417.92;107634;1256;112793;-63
2024/03/20 01:59:31;;;;;;;11.80;7.50;;;;;;;1.96;88.38;101417.36;107600;1254;107066;-62
2024/03/20 02:01:59;;;;;;;9.30;6.60;;;;;;;1.97;88.20;101420.27;107552;1254;108606;-61
2024/03/20 02:04:27;;;;;;;10.70;6.80;;;;;;;2.00;88.36;101422.63;107603;1254;99201;-63
2024/03/20 02:07:00;;;;;;;11.30;7.10;;;;;;;2.03;88.36;101424.11;107614;1256;99865;-62
2024/03/20 02:09:29;;;;;;;11.30;7.40;;;;;;;2.04;88.43;101428.49;107610;1251;113229;-65
2024/03/20 02:11:57;;;;;;;10.20;6.80;;;;;;;2.05;88.44;101431.30;107611;1254;108110;-63
2024/03/20 02:14:26;;;;;;;9.90;6.90;;;;;;;2.08;88.77;101432.23;107651;1251;108198;-63
2024/03/20 02:16:54;;;;;;;9.10;6.70;;;;;;;2.07;88.23;101430.66;107577;1254;99265;-62
2024/03/20 02:19:22;;;;;;;10.60;6.60;;;;;;;2.08;88.23;101434.55;107546;1254;99083;-64
2024/03/20 02:21:50;;;;;;;10.50;6.00;;;;;;;2.07;88.20;101436.85;107626;1254;113040;-63
2024/03/20 02:24:18;;;;;;;8.80;6.20;;;;;;;2.06;88.14;101437.10;107606;1255;108160;-63
2024/03/20 02:26:46;;;;;;;9.50;5.40;;;;;;;2.04;87.95;101440.71;107570;1256;107937;-64
2024/03/20 02:29:14;;;;;;;7.40;5.70;;;;;;;2.04;87.81;101443.19;107565;1251;99178;-64
2024/03/20 02:31:42;;;;;;;9.90;6.40;;;;;;;2.03;87.81;101443.05;107606;1251;99067;-64
2024/03/20 02:34:10;;;;;;;12.10;5.80;;;;;;;1.98;87.57;101440.05;107571;1251;113325;-62
2024/03/20 02:36:38;;;;;;;8.80;5.80;;;;;;;1.98;87.60;101440.23;107601;1255;108037;-63
2024/03/20 02:39:06;;;;;;;8.70;6.40;;;;;;;1.97;87.68;101442.60;107580;1251;107994;-63
2024/03/20 02:41:35;;;;;;;6.80;5.00;;;;;;;1.95;87.66;101445.85;107555;1251;99754;-61
2024/03/20 02:44:03;;;;;;;7.90;5.70;;;;;;;1.93;87.46;101445.95;107605;1251;99071;-64
2024/03/20 02:46:31;;;;;;;7.70;5.80;;;;;;;1.93;87.49;101451.09;107605;1254;112678;-63
2024/03/20 02:49:00;;;;;;;9.70;5.80;;;;;;;1.93;87.69;101453.03;107554;1253;107957;-63
2024/03/20 02:51:28;;;;;;;8.00;5.70;;;;;;;1.92;87.71;101453.23;107511;1256;107824;-62
2024/03/20 02:53:57;;;;;;;12.10;6.10;;;;;;;1.92;87.72;101457.30;107516;1254;99070;-64
2024/03/20 02:56:25;;;;;;;8.50;6.30;;;;;;;1.90;87.61;101462.86;107596;1254;99752;-63
2024/03/20 02:58:53;;;;;;;8.10;6.10;;;;;;;1.90;87.61;101459.34;107552;1254;112780;-63
2024/03/20 03:01:22;;;;;;;9.20;6.00;;;;;;;1.92;87.84;101464.05;107585;1253;107307;-64
2024/03/20 03:03:51;;;;;;;8.10;5.40;;;;;;;1.92;87.55;101469.35;107526;1256;108371;-66
2024/03/20 03:06:19;;;;;;;8.30;6.00;;;;;;;1.94;87.61;101469.96;107548;1256;99210;-63
2024/03/20 03:08:48;;;;;;;7.30;5.60;;;;;;;1.95;87.71;101466.89;107569;1252;99810;-63
2024/03/20 03:11:16;;;;;;;9.00;6.20;;;;;;;1.93;87.42;101471.58;107537;1254;113332;-62
2024/03/20 03:13:45;;;;;;;9.40;6.80;;;;;;;1.93;87.34;101468.22;107561;1253;107824;-62
2024/03/20 03:16:13;;;;;;;7.10;5.80;;;;;;;1.94;87.62;101466.26;107500;1254;107597;-63
2024/03/20 03:18:41;;;;;;;9.30;6.90;;;;;;;1.94;87.63;101472.44;107511;1254;99214;-63
2024/03/20 03:21:11;;;;;;;9.80;6.60;;;;;;;1.93;87.51;101471.43;107535;1254;99108;-66
2024/03/20 03:23:39;;;;;;;7.80;6.00;;;;;;;1.93;87.62;101466.46;107598;1255;112219;-64
2024/03/20 03:26:07;;;;;;;10.70;7.60;;;;;;;1.91;87.25;101469.55;107559;1254;107585;-63
2024/03/20 03:28:35;;;;;;;10.00;7.70;;;;;;;1.89;87.06;101469.81;107544;1256;109407;-64
2024/03/20 03:31:03;;;;;;;11.10;7.10;;;;;;;1.90;87.20;101468.55;107494;1253;99234;-64
2024/03/20 03:33:31;;;;;;;11.40;7.50;;;;;;;1.91;87.10;101465.84;107515;1254;99820;-63
2024/03/20 03:36:07;;;;;;;10.40;7.00;;;;;;;1.91;87.00;101464.98;107562;1256;112022;-64
2024/03/20 03:38:35;;;;;;;11.00;8.00;;;;;;;1.90;87.04;101464.98;107534;1254;108550;-63
2024/03/20 03:41:04;;;;;;;10.10;7.30;;;;;;;1.87;86.89;101465.44;107585;1254;107442;-63
2024/03/20 03:43:32;;;;;;;10.40;7.40;;;;;;;1.83;86.60;101462.81;107588;1254;99061;-62
2024/03/20 03:46:00;;;;;;;10.90;8.40;;;;;;;1.78;86.53;101466.73;107601;1256;99186;-64
2024/03/20 03:48:29;;;;;;;10.80;8.30;;;;;;;1.74;86.58;101464.95;107580;1254;113127;-63
2024/03/20 03:50:58;;;;;;;13.60;8.60;;;;;;;1.73;86.36;101466.92;107674;1255;107746;-65
2024/03/20 03:53:26;;;;;;;10.90;8.40;;;;;;;1.69;86.03;101468.13;107607;1251;108320;-64
2024/03/20 03:55:54;;;;;;;13.70;9.00;;;;;;;1.66;86.39;101471.81;107543;1256;99182;-63
2024/03/20 03:58:22;;;;;;;10.10;8.30;;;;;;;1.64;86.53;101477.89;107611;1251;99220;-64
2024/03/20 04:00:50;;;;;;;11.90;8.80;;;;;;;1.63;86.55;101480.04;107645;1251;112582;-63
2024/03/20 04:03:23;;;;;;;13.70;9.50;;;;;;;1.67;86.53;101481.13;107642;1251;107965;-63
2024/03/20 04:05:58;;;;;;;14.70;9.80;;;;;;;1.72;86.66;101484.99;107583;1254;108174;-65
2024/03/20 04:08:27;;;;;;;14.00;8.30;;;;;;;1.73;86.32;101487.96;107556;1254;99198;-64
2024/03/20 04:10:55;;;;;;;14.40;9.40;;;;;;;1.75;86.16;101490.17;107684;1254;99203;-63
2024/03/20 04:13:23;;;;;;;13.00;8.90;;;;;;;1.74;86.35;101495.34;107629;1254;112775;-63
2024/03/20 04:15:54;;;;;;;12.10;8.40;;;;;;;1.69;85.77;101494.67;107572;1254;108112;-62
2024/03/20 04:18:22;;;;;;;12.40;9.20;;;;;;;1.70;85.85;101497.45;107551;1254;107450;-65
2024/03/20 04:20:51;;;;;;;14.10;8.60;;;;;;;1.67;86.00;101501.83;107626;1254;98987;-64
2024/03/20 04:23:19;;;;;;;14.00;9.50;;;;;;;1.62;85.79;101504.98;107682;1251;99752;-64
2024/03/20 04:25:47;;;;;;;14.60;9.40;;;;;;;1.65;85.95;101506.31;107615;1256;112599;-65
2024/03/20 04:28:15;;;;;;;15.20;9.30;;;;;;;1.69;86.18;101507.92;107627;1251;107819;-64
2024/03/20 04:30:43;;;;;;;18.10;12.00;;;;;;;1.66;85.63;101509.09;107578;1251;108581;-64
2024/03/20 04:33:12;;;;;;;13.50;9.80;;;;;;;1.70;85.89;101513.02;107616;1256;99169;-64
2024/03/20 04:35:40;;;;;;;16.90;11.20;;;;;;;1.68;85.39;101513.63;107617;1256;99188;-64
2024/03/20 04:38:09;;;;;;;17.50;12.20;;;;;;;1.64;85.45;101509.71;107558;1251;112147;-64
2024/03/20 04:40:39;;;;;;;16.40;11.90;;;;;;;1.67;85.78;101515.23;107555;1255;108294;-64
2024/03/20 04:43:07;;;;;;;16.30;11.20;;;;;;;1.67;85.29;101511.35;107471;1257;107100;-66
2024/03/20 04:45:36;;;;;;;32.90;17.00;;;;;;;1.74;85.62;101515.16;107589;1251;99177;-63
2024/03/20 04:48:05;;;;;;;24.50;13.00;;;;;;;1.73;85.09;101511.84;107568;1251;99182;-64
2024/03/20 04:50:33;;;;;;;19.00;10.80;;;;;;;1.69;85.03;101514.64;107550;1255;111886;-64
2024/03/20 04:53:01;;;;;;;16.40;10.40;;;;;;;1.67;84.72;101514.54;107594;1251;108287;-64
2024/03/20 04:55:29;;;;;;;17.00;10.80;;;;;;;1.63;84.77;101513.85;107487;1257;107318;-64
2024/03/20 04:57:57;;;;;;;19.20;11.40;;;;;;;1.60;84.70;101519.08;107527;1251;99182;-65
2024/03/20 05:00:26;;;;;;;15.70;10.40;;;;;;;1.61;84.98;101518.52;107522;1256;99073;-65
2024/03/20 05:02:55;;;;;;;15.00;9.50;;;;;;;1.61;85.12;101522.58;107594;1251;113737;-62
2024/03/20 05:05:23;;;;;;;17.50;10.60;;;;;;;1.63;85.29;101522.31;107515;1254;108843;-63
2024/03/20 05:07:51;;;;;;;16.10;10.80;;;;;;;1.56;84.60;101523.09;107531;1254;107543;-63
2024/03/20 05:10:20;;;;;;;14.30;10.00;;;;;;;1.52;84.78;101525.94;107535;1251;99182;-64
2024/03/20 05:12:48;;;;;;;16.60;10.40;;;;;;;1.43;84.97;101523.79;107561;1251;99812;-64
2024/03/20 05:15:17;;;;;;;13.90;8.70;;;;;;;1.34;85.29;101524.66;107539;1255;112792;-62
2024/03/20 05:17:45;;;;;;;15.40;9.90;;;;;;;1.24;85.79;101528.03;107589;1256;107284;-63
2024/03/20 05:20:15;;;;;;;15.70;9.50;;;;;;;1.19;85.97;101526.42;107541;1251;108281;-68
2024/03/20 05:22:43;;;;;;;16.90;11.30;;;;;;;1.18;86.40;101535.84;107543;1251;99764;-64
2024/03/20 05:25:28;;;;;;;14.80;9.70;;;;;;;1.11;86.69;101536.80;107522;1251;99121;-65
2024/03/20 05:28:14;;;;;;;14.20;10.70;;;;;;;1.04;87.00;101538.81;107592;1255;113965;-65
2024/03/20 05:30:42;;;;;;;15.70;9.40;;;;;;;1.06;87.16;101543.36;107526;1257;107884;-63
2024/03/20 05:33:10;;;;;;;14.50;9.60;;;;;;;1.03;87.09;101543.99;107479;1251;108431;-64
2024/03/20 05:35:38;;;;;;;18.30;10.00;;;;;;;0.98;87.61;101547.20;107551;1257;99167;-65
2024/03/20 05:38:06;;;;;;;15.60;10.30;;;;;;;0.91;87.69;101545.30;107569;1256;99722;-64
2024/03/20 05:40:35;;;;;;;14.20;9.20;;;;;;;0.86;87.69;101546.70;107576;1254;113201;-64
2024/03/20 05:43:04;;;;;;;16.10;10.20;;;;;;;0.87;87.70;101548.44;107598;1254;108288;-65
2024/03/20 05:45:33;;;;;;;14.40;9.80;;;;;;;0.91;87.72;101548.81;107570;1256;108120;-63
2024/03/20 05:48:01;;;;;;;14.90;10.30;;;;;;;1.00;87.72;101547.83;107548;1251;99221;-63
2024/03/20 05:50:30;;;;;;;13.40;9.70;;;;;;;1.03;87.64;101549.11;107607;1251;99073;-65
2024/03/20 05:52:58;;;;;;;14.40;9.10;;;;;;;1.03;87.61;101554.59;107536;1251;113080;-65
2024/03/20 05:55:26;;;;;;;16.20;10.40;;;;;;;1.04;87.41;101561.95;107527;1254;107851;-63
2024/03/20 05:57:54;;;;;;;15.30;9.90;;;;;;;1.10;87.49;101564.05;107574;1255;107133;-64
2024/03/20 06:00:25;;;;;;;14.00;9.10;;;;;;;1.19;88.05;101561.77;107622;1257;99173;-65
2024/03/20 06:02:53;;;;;;;15.00;9.50;;;;;;;1.24;87.90;101565.30;107590;1254;99178;-65
2024/03/20 06:05:21;;;;;;;13.30;9.30;;;;;;;1.25;87.72;101566.15;107604;1251;113314;-65
2024/03/20 06:07:51;;;;;;;13.20;8.90;;;;;;;1.27;87.66;101569.10;107523;1251;108463;-65
2024/03/20 06:10:19;;;;;;;16.10;9.50;;;;;;;1.31;87.64;101566.67;107500;1254;108157;-64
2024/03/20 06:12:47;;;;;;;16.50;9.60;;;;;;;1.27;87.19;101569.26;107565;1254;99188;-63
2024/03/20 06:15:16;;;;;;;15.90;10.00;;;;;;;1.25;87.00;101567.23;107639;1251;99057;-64
2024/03/20 06:17:44;;;;;;;16.40;9.30;;;;;;;1.23;87.05;101571.36;107537;1255;112514;-64
2024/03/20 06:20:13;;;;;;;16.20;9.40;;;;;;;1.18;87.02;101574.34;107516;1251;108346;-63
2024/03/20 06:22:41;;;;;;;12.70;8.50;;;;;;;1.12;86.88;101576.34;107534;1254;108152;-64
2024/03/20 06:25:10;;;;;;;12.20;8.50;;;;;;;1.04;87.00;101574.14;107515;1256;99214;-64
2024/03/20 06:27:39;;;;;;;13.60;9.40;;;;;;;1.02;86.84;101578.48;107668;1256;99294;-62
2024/03/20 06:30:11;;;;;;;13.60;8.80;;;;;;;0.99;87.11;101582.66;107519;1254;113168;-65
2024/03/20 06:32:39;;;;;;;15.40;8.80;;;;;;;0.97;87.37;101585.35;107533;1254;108003;-64
2024/03/20 06:35:11;;;;;;;12.30;8.60;;;;;;;1.01;87.24;101586.63;107599;1253;107750;-63
2024/03/20 06:37:39;;;;;;;14.30;8.80;;;;;;;1.05;87.43;101593.54;107578;1251;99196;-63
2024/03/20 06:40:10;;;;;;;21.00;10.00;;;;;;;1.07;87.30;101592.44;107551;1251;99739;-64
2024/03/20 06:42:42;;;;;;;15.70;9.00;;;;;;;1.11;87.52;101590.88;107608;1251;112794;-63
2024/03/20 06:45:10;;;;;;;16.90;8.80;;;;;;;1.17;87.78;101594.56;107532;1254;108544;-64
2024/03/20 06:47:41;;;;;;;13.20;8.90;;;;;;;1.19;87.65;101597.98;107541;1251;107386;-63
2024/03/20 06:50:11;;;;;;;16.20;9.00;;;;;;;1.31;87.70;101597.59;107557;1251;99175;-65
2024/03/20 06:52:39;;;;;;;14.50;8.60;;;;;;;1.41;87.71;101602.67;107560;1251;99716;-65
2024/03/20 06:55:14;;;;;;;14.20;8.70;;;;;;;1.44;87.62;101605.94;107517;1257;112752;-65
2024/03/20 06:57:42;;;;;;;13.00;9.20;;;;;;;1.37;86.89;101607.94;107585;1254;108423;-65
2024/03/20 07:00:17;;;;;;;16.40;9.00;;;;;;;1.41;87.56;101604.10;107539;1251;108255;-63
2024/03/20 07:02:46;;;;;;;16.40;9.10;;;;;;;1.41;87.16;101607.48;107536;1251;99178;-65
2024/03/20 07:05:16;;;;;;;12.80;9.00;;;;;;;1.41;87.28;101607.48;107603;1251;99180;-64
2024/03/20 07:07:45;;;;;;;13.40;8.80;;;;;;;1.49;87.67;101609.62;107623;1254;113230;-65
2024/03/20 07:10:13;;;;;;;15.90;9.40;;;;;;;1.51;87.60;101608.33;107605;1255;108231;-65
2024/03/20 07:12:42;;;;;;;12.60;8.90;;;;;;;1.48;87.81;101614.64;107630;1254;108279;-63
2024/03/20 07:15:11;;;;;;;16.90;8.80;;;;;;;1.46;87.84;101615.60;107565;1254;99419;-63
2024/03/20 07:17:40;;;;;;;14.20;7.60;;;;;;;1.47;87.82;101619.98;107645;1254;99204;-64
2024/03/20 07:20:09;;;;;;;18.30;8.30;;;;;;;1.48;87.78;101616.73;107622;1251;114120;-64
2024/03/20 07:22:37;;;;;;;12.80;8.60;;;;;;;1.48;88.19;101618.15;107582;1253;108833;-64
2024/03/20 07:25:07;;;;;;;12.10;8.20;;;;;;;1.50;88.15;101622.69;107658;1251;108475;-65
2024/03/20 07:27:36;;;;;;;16.80;9.10;;;;;;;1.53;87.73;101621.52;107532;1253;99182;-64
2024/03/20 07:30:06;;;;;;;15.90;9.60;;;;;;;1.52;87.65;101625.11;107611;1251;99188;-64
2024/03/20 07:32:35;;;;;;;15.60;8.70;;;;;;;1.54;87.72;101625.70;107607;1251;112759;-65
2024/03/20 07:35:06;;;;;;;16.10;8.30;;;;;;;1.61;87.47;101627.78;107585;1251;107379;-64
2024/03/20 07:37:34;;;;;;;14.40;10.00;;;;;;;1.63;87.47;101624.32;107647;1251;108196;-64
2024/03/20 07:40:04;;;;;;;15.60;9.80;;;;;;;1.72;87.75;101624.36;107545;1254;99160;-64
2024/03/20 07:42:33;;;;;;;17.30;10.50;;;;;;;1.78;87.69;101624.30;107599;1251;99711;-64
2024/03/20 07:45:02;;;;;;;15.10;9.20;;;;;;;1.84;87.35;101629.41;107581;1251;112598;-65
2024/03/20 07:47:31;;;;;;;12.70;8.50;;;;;;;1.94;87.60;101626.54;107654;1251;107588;-65
2024/03/20 07:49:59;;;;;;;13.40;8.60;;;;;;;2.01;87.48;101629.97;107535;1251;106638;-64
2024/03/20 07:52:29;;;;;;;13.50;8.20;;;;;;;1.98;86.75;101625.65;107632;1251;99253;-65
2024/03/20 07:54:59;;;;;;;14.10;8.40;;;;;;;1.98;87.26;101627.06;107551;1254;99195;-64
2024/03/20 07:57:28;;;;;;;12.70;8.40;;;;;;;2.01;87.08;101629.64;106996;1254;777034;-65
2024/03/20 07:59:57;;;;;;;11.10;7.20;;;;;;;2.04;87.17;101622.77;107625;1254;108472;-65
2024/03/20 08:02:27;;;;;;;12.40;8.50;;;;;;;2.06;87.00;101620.04;107607;1254;107719;-63
2024/03/20 08:04:55;;;;;;;10.40;8.00;;;;;;;2.09;87.13;101617.81;107604;1251;99291;-63
2024/03/20 08:07:23;;;;;;;12.20;7.80;;;;;;;2.18;87.31;101619.23;107575;1251;99090;-63
2024/03/20 08:09:54;;;;;;;10.80;7.90;;;;;;;2.27;86.97;101622.56;107550;1254;112197;-65
2024/03/20 08:12:22;;;;;;;14.40;9.10;;;;;;;2.33;86.98;101621.29;107684;1257;107725;-65
2024/03/20 08:14:51;;;;;;;15.40;8.60;;;;;;;2.40;86.98;101620.82;107544;1254;107106;-65
2024/03/20 08:17:20;;;;;;;14.30;8.10;;;;;;;2.52;86.92;101618.91;107600;1254;99183;-66
2024/03/20 08:19:48;;;;;;;15.30;10.40;;;;;;;2.65;87.21;101620.35;107659;1250;99308;-66
2024/03/20 08:22:16;;;;;;;15.80;9.20;;;;;;;2.80;87.30;101618.12;107592;1251;114468;-63
2024/03/20 08:24:46;;;;;;;13.30;8.70;;;;;;;2.87;86.94;101615.19;107612;1251;108588;-65
2024/03/20 08:27:14;;;;;;;11.80;7.30;;;;;;;2.90;86.31;101615.06;107545;1253;108189;-64
2024/03/20 08:29:42;;;;;;;9.80;7.10;;;;;;;2.97;86.10;101614.75;107574;1254;99287;-64
2024/03/20 08:32:10;;;;;;;12.10;7.40;;;;;;;3.10;85.99;101613.27;107604;1254;99778;-63
2024/03/20 08:34:42;;;;;;;12.90;7.40;;;;;;;3.21;85.23;101608.58;107657;1254;112158;-63
2024/03/20 08:37:10;;;;;;;10.50;7.00;;;;;;;3.25;84.48;101610.67;107515;1251;107399;-63
2024/03/20 08:39:38;;;;;;;11.90;7.90;;;;;;;3.39;85.08;101609.34;107563;1251;108325;-63
2024/03/20 08:42:07;;;;;;;12.70;7.60;;;;;;;3.61;85.35;101602.86;107468;1251;99711;-64
2024/03/20 08:44:35;;;;;;;11.10;8.20;;;;;;;3.87;85.51;101607.34;107593;1254;99333;-64
2024/03/20 08:47:03;;;;;;;14.00;7.60;;;;;;;4.10;85.05;101602.91;107553;1254;112886;-65
2024/03/20 08:49:37;;;;;;;11.10;7.50;;;;;;;4.21;83.70;101599.33;107569;1254;108480;-64
2024/03/20 08:52:09;;;;;;;11.70;7.80;;;;;;;4.28;82.40;101602.55;107572;1251;106699;-64
2024/03/20 08:54:40;;;;;;;11.40;7.80;;;;;;;4.46;82.78;101599.92;107624;1251;99290;-63
2024/03/20 08:57:08;;;;;;;13.10;8.80;;;;;;;4.70;83.13;101603.66;107552;1254;99074;-64
2024/03/20 08:59:37;;;;;;;20.10;11.30;;;;;;;4.88;81.90;101591.38;107604;1251;112226;-63
2024/03/20 09:02:05;;;;;;;19.50;9.90;;;;;;;5.14;82.29;101589.01;107559;1251;108383;-64
2024/03/20 09:04:33;;;;;;;13.70;7.60;;;;;;;5.30;80.33;101590.98;107627;1251;108762;-63
2024/03/20 09:07:02;;;;;;;11.50;7.10;;;;;;;5.45;79.53;101583.98;107583;1251;99185;-62
2024/03/20 09:09:32;;;;;;;13.30;7.90;;;;;;;5.63;78.44;101583.38;107623;1251;99143;-65
2024/03/20 09:12:04;;;;;;;10.40;7.60;;;;;;;5.85;79.10;101577.89;107597;1251;113484;-65
2024/03/20 09:14:35;;;;;;;11.70;7.60;;;;;;;6.05;79.07;101576.65;107628;1251;107646;-64
2024/03/20 09:17:03;;;;;;;11.30;6.90;;;;;;;6.28;78.19;101577.10;107625;1253;107749;-64
2024/03/20 09:19:31;;;;;;;10.60;6.70;;;;;;;6.45;77.34;101579.49;107619;1254;99173;-65
2024/03/20 09:22:00;;;;;;;11.50;7.10;;;;;;;6.61;76.88;101580.19;107450;1254;99189;-65
2024/03/20 09:24:32;;;;;;;9.20;7.70;;;;;;;6.77;76.06;101584.46;107664;1254;113231;-65
2024/03/20 09:27:00;;;;;;;11.80;7.40;;;;;;;7.00;75.91;101582.85;107646;1255;107846;-65
2024/03/20 09:29:32;;;;;;;9.50;6.90;;;;;;;7.28;73.66;101580.66;107626;1256;108674;-63
2024/03/20 09:32:00;;;;;;;10.30;7.30;;;;;;;7.47;72.38;101582.16;107602;1253;99099;-63
2024/03/20 09:34:28;;;;;;;11.60;7.60;;;;;;;7.64;70.16;101574.87;107647;1254;99763;-64
2024/03/20 09:36:56;;;;;;;10.40;7.70;;;;;;;7.61;69.13;101582.15;107629;1254;112488;-64
2024/03/20 09:39:25;;;;;;;12.50;7.70;;;;;;;7.59;69.04;101580.02;107646;1253;108282;-64
2024/03/20 09:41:54;;;;;;;10.00;8.00;;;;;;;7.56;68.54;101585.17;107631;1256;108788;-62
2024/03/20 09:44:23;;;;;;;9.60;7.10;;;;;;;7.56;68.31;101583.95;107641;1254;99178;-64
2024/03/20 09:46:53;;;;;;;11.80;8.10;;;;;;;7.60;68.42;101587.95;107669;1253;99701;-64
2024/03/20 09:49:24;;;;;;;10.70;7.60;;;;;;;7.76;66.77;101588.55;107635;1255;112400;-64
2024/03/20 09:51:52;;;;;;;9.00;6.70;;;;;;;7.86;67.84;101590.63;107689;1254;107756;-65
2024/03/20 09:54:25;;;;;;;10.70;7.20;;;;;;;8.44;68.01;101592.93;107652;1251;107595;-64
2024/03/20 09:56:54;;;;;;;10.50;7.10;;;;;;;9.37;67.54;101583.04;107529;1254;99258;-63
2024/03/20 09:59:22;;;;;;;9.10;6.60;;;;;;;9.78;63.65;101569.20;107573;1251;99252;-63
2024/03/20 10:01:51;;;;;;;12.40;6.40;;;;;;;10.16;61.68;101570.77;107477;1253;112730;-63
2024/03/20 10:04:26;;;;;;;8.40;6.70;;;;;;;10.93;61.30;101566.64;107645;1254;107986;-62
2024/03/20 10:06:57;;;;;;;7.00;5.80;;;;;;;11.45;58.77;101559.34;107453;1254;107367;-61
2024/03/20 10:09:29;;;;;;;11.40;6.30;;;;;;;11.64;56.47;101561.83;107593;1253;99298;-64
2024/03/20 10:11:57;;;;;;;8.30;5.70;;;;;;;11.22;55.70;101564.94;107681;1254;99055;-62
2024/03/20 10:14:27;;;;;;;7.90;5.90;;;;;;;11.04;55.51;101562.71;107677;1254;113277;-62
2024/03/20 10:17:15;;;;;;;9.80;5.60;;;;;;;10.92;55.10;101559.33;107698;1254;107130;-64
2024/03/20 10:19:44;;;;;;;7.50;5.20;;;;;;;10.62;55.50;101560.38;107666;1254;107482;-64
2024/03/20 10:22:13;;;;;;;7.80;5.40;;;;;;;10.39;55.26;101555.61;107674;1253;99160;-66
2024/03/20 10:24:42;;;;;;;7.70;5.00;;;;;;;10.27;56.83;101555.79;107600;1254;99730;-63
2024/03/20 10:27:13;;;;;;;9.20;6.40;;;;;;;10.18;56.94;101552.87;107627;1256;113196;-66
2024/03/20 10:29:43;;;;;;;13.30;8.60;;;;;;;10.32;55.84;101547.95;107654;1251;108144;-66
2024/03/20 10:32:18;;;;;;;13.60;8.30;;;;;;;10.31;55.83;101547.20;107468;1251;108122;-65
2024/03/20 10:34:51;;;;;;;8.90;6.50;;;;;;;10.23;56.04;101544.76;107530;1251;99179;-65
2024/03/20 10:37:22;;;;;;;10.60;6.30;;;;;;;10.13;55.50;101546.08;107619;1251;99166;-63
2024/03/20 10:39:53;;;;;;;12.10;6.70;;;;;;;10.07;56.37;101540.97;107485;1251;113689;-64
2024/03/20 10:42:24;;;;;;;8.90;6.50;;;;;;;10.06;55.24;101539.20;107529;1251;107127;-64
2024/03/20 10:44:53;;;;;;;10.60;5.90;;;;;;;10.42;55.05;101538.71;107480;1251;106505;-64
2024/03/20 10:47:22;;;;;;;8.50;5.60;;;;;;;10.36;54.36;101536.30;107497;1251;99173;-62
2024/03/20 10:49:51;;;;;;;7.80;5.80;;;;;;;10.30;53.78;101535.09;107568;1251;99832;-63
2024/03/20 10:52:19;;;;;;;9.70;7.30;;;;;;;10.43;52.00;101533.30;107564;1251;112671;-64
2024/03/20 10:54:48;;;;;;;11.50;6.80;;;;;;;10.27;53.08;101531.73;107500;1251;107154;-64
2024/03/20 10:57:16;;;;;;;8.40;6.00;;;;;;;10.05;52.95;101529.95;107553;1254;107208;-65
2024/03/20 10:59:47;;;;;;;8.90;6.20;;;;;;;9.94;54.51;101532.23;107466;1251;99161;-64
2024/03/20 11:02:16;;;;;;;9.90;5.90;;;;;;;9.97;54.19;101528.04;107541;1251;99166;-64
2024/03/20 11:04:44;;;;;;;6.90;5.70;;;;;;;10.18;54.84;101523.84;107646;1251;112610;-64
2024/03/20 11:07:36;;;;;;;9.20;6.10;;;;;;;10.69;53.56;101520.34;107498;1251;108374;-64
2024/03/20 11:10:17;;;;;;;8.30;5.00;;;;;;;12.05;52.69;101518.20;107478;1251;108469;-64
2024/03/20 11:12:45;;;;;;;7.20;4.80;;;;;;;13.30;49.33;101508.52;107507;1251;99246;-65
2024/03/20 11:15:16;;;;;;;5.10;4.60;;;;;;;14.27;47.34;101500.86;107552;1251;99053;-64
2024/03/20 11:17:49;;;;;;;7.40;3.80;;;;;;;14.59;45.60;101498.06;107568;1251;112822;-63
2024/03/20 11:20:33;;;;;;;4.60;3.90;;;;;;;14.19;42.71;101497.32;107517;1254;107185;-64